createdAt,value
2022-09-15T00:00:29.899Z,2.92
2022-09-15T00:03:00.939Z,4.03
2022-09-15T00:05:27.380Z,3.30
2022-09-15T00:07:53.717Z,3.00
2022-09-15T00:10:24.811Z,3.20
2022-09-15T00:12:51.178Z,3.30
2022-09-15T00:15:17.625Z,3.25
2022-09-15T00:17:49.673Z,2.92
2022-09-15T00:20:22.474Z,3.45
2022-09-15T00:22:49.356Z,4.32
2022-09-15T00:25:15.798Z,3.72
2022-09-15T00:27:42.298Z,4.63
2022-09-15T00:30:09.062Z,3.95
2022-09-15T00:32:35.717Z,3.40
2022-09-15T00:35:07.236Z,3.42
2022-09-15T00:37:34.163Z,4.15
2022-09-15T00:40:00.616Z,3.88
2022-09-15T00:42:27.008Z,3.40
2022-09-15T00:44:59.329Z,3.95
2022-09-15T00:47:36.290Z,3.25
2022-09-15T00:50:09.256Z,3.53
2022-09-15T00:52:46.029Z,3.00
2022-09-15T00:55:19.338Z,2.92
2022-09-15T00:57:53.642Z,3.00
2022-09-15T01:00:23.778Z,2.72
2022-09-15T01:02:50.809Z,2.42
2022-09-15T01:05:22.151Z,2.63
2022-09-15T01:07:55.662Z,2.47
2022-09-15T01:10:37.566Z,2.50
2022-09-15T01:13:07.608Z,2.42
2022-09-15T01:15:58.412Z,2.70
2022-09-15T01:18:35.636Z,2.15
2022-09-15T01:21:31.644Z,2.53
2022-09-15T01:24:25.991Z,2.20
2022-09-15T01:26:58.546Z,2.40
2022-09-15T01:29:47.796Z,2.10
2022-09-15T01:32:48.432Z,1.77
2022-09-15T01:35:24.927Z,1.85
2022-09-15T01:37:58.863Z,2.20
2022-09-15T01:40:29.660Z,2.13
2022-09-15T01:42:57.990Z,1.80
2022-09-15T01:45:32.738Z,1.95
2022-09-15T01:48:01.827Z,2.22
2022-09-15T01:50:36.530Z,2.17
2022-09-15T01:53:08.362Z,1.13
2022-09-15T01:55:46.507Z,1.90
2022-09-15T01:58:15.509Z,1.83
2022-09-15T02:00:48.180Z,1.83
2022-09-15T02:03:44.593Z,1.92
2022-09-15T02:06:21.058Z,1.60
2022-09-15T02:08:56.075Z,2.10
2022-09-15T02:11:28.030Z,1.45
2022-09-15T02:16:29.118Z,1.70
2022-09-15T02:19:17.000Z,1.60
2022-09-15T02:22:10.612Z,1.67
2022-09-15T02:24:44.029Z,1.27
2022-09-15T02:27:16.424Z,1.20
2022-09-15T02:29:47.713Z,1.40
2022-09-15T02:32:17.628Z,1.92
2022-09-15T02:34:47.672Z,1.27
2022-09-15T02:37:14.997Z,2.08
2022-09-15T02:39:47.525Z,1.98
2022-09-15T02:42:24.969Z,1.98
2022-09-15T02:44:51.470Z,1.70
2022-09-15T02:47:23.073Z,1.75
2022-09-15T02:49:51.871Z,1.70
2022-09-15T02:52:18.309Z,1.63
2022-09-15T02:54:44.640Z,1.55
2022-09-15T02:57:11.120Z,1.88
2022-09-15T02:59:56.297Z,1.55
2022-09-15T03:02:23.493Z,2.03
2022-09-15T03:04:50.515Z,2.00
2022-09-15T03:07:18.369Z,2.08
2022-09-15T03:09:44.975Z,2.00
2022-09-15T03:12:11.361Z,2.38
2022-09-15T03:14:38.358Z,2.13
2022-09-15T03:17:04.948Z,1.88
2022-09-15T03:19:31.714Z,2.20
2022-09-15T03:21:58.041Z,2.47
2022-09-15T03:24:24.362Z,2.88
2022-09-15T03:26:53.767Z,2.83
2022-09-15T03:29:20.105Z,2.38
2022-09-15T03:31:46.594Z,2.80
2022-09-15T03:34:12.982Z,2.38
2022-09-15T03:36:39.394Z,2.38
2022-09-15T03:39:05.855Z,2.45
2022-09-15T03:41:32.183Z,2.40
2022-09-15T03:43:58.619Z,2.30
2022-09-15T03:46:25.047Z,2.72
2022-09-15T03:48:51.494Z,2.30
2022-09-15T03:51:20.455Z,2.95
2022-09-15T03:53:47.002Z,2.58
2022-09-15T03:56:24.673Z,2.47
2022-09-15T03:58:51.949Z,2.50
2022-09-15T04:01:21.766Z,3.05
2022-09-15T04:03:51.726Z,3.13
2022-09-15T04:06:20.219Z,2.90
2022-09-15T04:08:46.951Z,2.85
2022-09-15T04:11:14.350Z,3.10
2022-09-15T04:13:42.032Z,3.10
2022-09-15T04:16:12.639Z,3.13
2022-09-15T04:18:41.936Z,3.17
2022-09-15T04:21:13.204Z,2.97
2022-09-15T04:23:40.983Z,3.95
2022-09-15T04:26:13.744Z,2.70
2022-09-15T04:28:42.531Z,2.65
2022-09-15T04:31:12.031Z,2.40
2022-09-15T04:33:43.039Z,3.15
2022-09-15T04:36:12.660Z,3.53
2022-09-15T04:38:39.193Z,2.22
2022-09-15T04:41:06.339Z,2.65
2022-09-15T04:43:33.522Z,2.90
2022-09-15T04:45:59.930Z,2.85
2022-09-15T04:48:29.828Z,2.75
2022-09-15T04:51:01.637Z,2.88
2022-09-15T04:53:28.488Z,2.50
2022-09-15T04:56:04.619Z,2.97
2022-09-15T04:58:33.298Z,3.22
2022-09-15T05:01:07.357Z,3.65
2022-09-15T05:03:37.007Z,3.13
2022-09-15T05:06:06.019Z,3.17
2022-09-15T05:08:32.472Z,2.35
2022-09-15T05:11:01.243Z,2.35
2022-09-15T05:13:30.226Z,1.95
2022-09-15T05:15:56.707Z,1.67
2022-09-15T05:18:23.098Z,2.00
2022-09-15T05:20:49.507Z,1.75
2022-09-15T05:23:18.955Z,1.40
2022-09-15T05:25:54.499Z,1.15
2022-09-15T05:28:20.857Z,2.05
2022-09-15T05:30:47.225Z,1.52
2022-09-15T05:33:13.598Z,1.23
2022-09-15T05:35:40.027Z,1.30
2022-09-15T05:38:08.883Z,1.20
2022-09-15T05:40:35.375Z,1.10
2022-09-15T05:43:01.820Z,1.42
2022-09-15T05:45:28.199Z,1.45
2022-09-15T05:47:59.164Z,1.10
2022-09-15T05:50:25.963Z,1.05
2022-09-15T05:52:52.667Z,1.10
2022-09-15T05:55:21.468Z,1.23
2022-09-15T05:57:47.868Z,1.25
2022-09-15T06:00:14.783Z,0.77
2022-09-15T06:02:41.284Z,1.25
2022-09-15T06:05:10.244Z,1.65
2022-09-15T06:07:36.857Z,1.73
2022-09-15T06:10:04.616Z,1.77
2022-09-15T06:12:31.263Z,1.95
2022-09-15T06:14:57.625Z,2.60
2022-09-15T06:17:24.030Z,2.50
2022-09-15T06:19:53.106Z,2.60
2022-09-15T06:22:19.525Z,2.92
2022-09-15T06:24:46.068Z,3.53
2022-09-15T06:27:12.449Z,4.07
2022-09-15T06:29:41.215Z,3.83
2022-09-15T06:32:07.708Z,3.83
2022-09-15T06:34:34.120Z,5.05
2022-09-15T06:37:00.628Z,3.72
2022-09-15T06:39:29.534Z,3.40
2022-09-15T06:42:02.768Z,4.00
2022-09-15T06:44:29.596Z,3.88
2022-09-15T06:47:00.915Z,4.40
2022-09-15T06:49:27.370Z,5.63
2022-09-15T06:51:56.412Z,6.18
2022-09-15T06:54:23.575Z,6.97
2022-09-15T06:56:52.625Z,7.57
2022-09-15T06:59:19.011Z,7.70
2022-09-15T07:01:53.014Z,8.68
2022-09-15T07:04:19.829Z,9.13
2022-09-15T07:06:46.276Z,9.60
2022-09-15T07:09:12.760Z,10.88
2022-09-15T07:11:39.534Z,9.15
2022-09-15T07:14:06.206Z,7.57
2022-09-15T07:16:33.117Z,6.47
2022-09-15T07:19:01.871Z,5.10
2022-09-15T07:21:30.413Z,5.00
2022-09-15T07:23:57.876Z,6.35
2022-09-15T07:26:30.010Z,5.63
2022-09-15T07:29:01.759Z,4.45
2022-09-15T07:31:31.179Z,3.80
2022-09-15T07:33:59.711Z,4.70
2022-09-15T07:36:28.488Z,4.28
2022-09-15T07:38:57.601Z,3.83
2022-09-15T07:41:29.385Z,3.60
2022-09-15T07:44:00.333Z,3.22
2022-09-15T07:46:29.189Z,3.47
2022-09-15T07:48:58.573Z,3.60
2022-09-15T07:51:27.917Z,2.90
2022-09-15T07:53:54.537Z,3.42
2022-09-15T07:56:21.933Z,4.38
2022-09-15T07:58:49.051Z,2.83
2022-09-15T08:01:16.450Z,3.38
2022-09-15T08:03:45.313Z,4.53
2022-09-15T08:06:13.091Z,3.75
2022-09-15T08:08:41.071Z,4.30
2022-09-15T08:11:17.669Z,3.85
2022-09-15T08:13:46.414Z,3.38
2022-09-15T08:16:18.105Z,2.75
2022-09-15T08:18:47.719Z,2.83
2022-09-15T08:21:20.169Z,3.45
2022-09-15T08:23:54.016Z,2.72
2022-09-15T08:26:20.634Z,3.30
2022-09-15T08:28:49.971Z,2.75
2022-09-15T08:31:16.867Z,2.92
2022-09-15T08:33:48.825Z,2.70
2022-09-15T08:38:45.365Z,3.63
2022-09-15T08:41:12.064Z,2.72
2022-09-15T08:43:47.130Z,2.63
2022-09-15T08:46:20.593Z,3.70
2022-09-15T08:49:02.067Z,2.42
2022-09-15T08:51:45.354Z,2.97
2022-09-15T08:54:21.281Z,2.75
2022-09-15T08:56:48.586Z,2.67
2022-09-15T08:59:17.925Z,2.88
2022-09-15T09:02:13.833Z,3.35
2022-09-15T09:04:47.498Z,2.50
2022-09-15T09:07:47.307Z,3.15
2022-09-15T09:10:34.064Z,3.08
2022-09-15T09:13:14.748Z,2.90
2022-09-15T09:15:54.329Z,2.40
2022-09-15T09:18:46.940Z,3.08
2022-09-15T09:21:13.221Z,3.40
2022-09-15T09:24:13.174Z,3.08
2022-09-15T09:26:40.263Z,2.63
2022-09-15T09:29:27.922Z,3.60
2022-09-15T09:31:58.564Z,2.95
2022-09-15T09:34:34.382Z,3.05
2022-09-15T09:37:11.749Z,3.05
2022-09-15T09:39:38.161Z,2.83
2022-09-15T09:42:06.266Z,2.75
2022-09-15T09:44:33.468Z,2.75
2022-09-15T09:47:03.789Z,2.30
2022-09-15T09:49:34.621Z,2.22
2022-09-15T09:52:03.600Z,2.63
2022-09-15T09:54:33.056Z,2.75
2022-09-15T09:57:28.001Z,2.20
2022-09-15T09:59:57.302Z,2.47
2022-09-15T10:02:29.256Z,2.03
2022-09-15T10:07:45.858Z,1.45
2022-09-15T10:10:23.930Z,1.77
2022-09-15T10:12:54.737Z,1.75
2022-09-15T10:15:27.336Z,1.70
2022-09-15T10:17:55.744Z,2.70
2022-09-15T10:20:33.813Z,1.98
2022-09-15T10:23:05.567Z,1.77
2022-09-15T10:25:57.672Z,2.08
2022-09-15T10:28:25.771Z,2.92
2022-09-15T10:31:11.397Z,2.72
2022-09-15T10:33:41.759Z,2.53
2022-09-15T10:36:20.385Z,3.38
2022-09-15T10:39:02.871Z,3.30
2022-09-15T10:41:35.295Z,3.97
2022-09-15T10:44:24.203Z,2.53
2022-09-15T10:47:10.938Z,3.22
2022-09-15T10:49:46.280Z,2.30
2022-09-15T10:52:36.254Z,3.13
2022-09-15T10:55:51.621Z,3.03
2022-09-15T10:58:45.626Z,2.28
2022-09-15T11:01:24.454Z,2.30
2022-09-15T11:04:15.633Z,1.45
2022-09-15T11:07:11.396Z,1.75
2022-09-15T11:09:49.205Z,2.35
2022-09-15T11:12:40.356Z,1.65
2022-09-15T11:15:44.604Z,2.03
2022-09-15T11:18:25.853Z,2.03
2022-09-15T11:21:09.413Z,1.60
2022-09-15T11:24:14.278Z,1.23
2022-09-15T11:26:50.129Z,1.13
2022-09-15T11:29:22.328Z,1.73
2022-09-15T11:32:04.228Z,1.30
2022-09-15T11:34:47.003Z,1.17
2022-09-15T11:37:22.725Z,1.30
2022-09-15T11:39:58.632Z,1.45
2022-09-15T11:42:55.977Z,1.05
2022-09-15T11:45:27.325Z,1.50
2022-09-15T11:48:01.433Z,1.23
2022-09-15T11:50:37.977Z,1.40
2022-09-15T11:53:31.986Z,1.30
2022-09-15T11:56:31.984Z,0.77
2022-09-15T11:59:33.736Z,1.48
2022-09-15T12:02:20.370Z,1.10
2022-09-15T12:05:09.236Z,0.85
2022-09-15T12:07:46.064Z,0.88
2022-09-15T12:10:23.165Z,0.80
2022-09-15T12:12:53.836Z,1.00
2022-09-15T12:15:29.982Z,1.00
2022-09-15T12:18:06.724Z,0.73
2022-09-15T12:20:54.593Z,1.02
2022-09-15T12:23:36.374Z,1.42
2022-09-15T12:26:17.249Z,1.25
2022-09-15T12:28:46.603Z,1.08
2022-09-15T12:31:29.982Z,1.20
2022-09-15T12:34:25.756Z,1.33
2022-09-15T12:37:08.943Z,1.58
2022-09-15T12:39:43.375Z,1.45
2022-09-15T12:42:31.474Z,1.42
2022-09-15T12:45:24.472Z,1.00
2022-09-15T12:47:54.635Z,1.67
2022-09-15T12:50:34.099Z,1.98
2022-09-15T12:53:28.773Z,1.52
2022-09-15T12:55:57.317Z,1.80
2022-09-15T12:58:39.967Z,1.85
2022-09-15T13:01:18.999Z,2.00
2022-09-15T13:03:45.780Z,2.42
2022-09-15T13:06:38.034Z,2.97
2022-09-15T13:09:06.544Z,2.45
2022-09-15T13:14:40.013Z,2.08
2022-09-15T13:17:25.343Z,2.80
2022-09-15T13:20:03.551Z,2.20
2022-09-15T13:22:39.631Z,2.72
2022-09-15T13:25:15.591Z,3.05
2022-09-15T13:27:47.835Z,3.17
2022-09-15T13:30:36.514Z,3.33
2022-09-15T13:33:21.456Z,3.35
2022-09-15T13:39:40.271Z,4.03
2022-09-15T13:42:12.536Z,3.78
2022-09-15T13:44:57.636Z,4.68
2022-09-15T13:47:29.616Z,5.65
2022-09-15T13:50:20.617Z,4.32
2022-09-15T13:53:15.029Z,4.60
2022-09-15T13:55:46.478Z,5.63
2022-09-15T14:01:07.609Z,4.40
2022-09-15T14:03:47.784Z,4.95
2022-09-15T14:06:27.067Z,4.38
2022-09-15T14:08:57.052Z,4.40
2022-09-15T14:11:32.112Z,3.60
2022-09-15T14:14:00.895Z,3.40
2022-09-15T14:16:27.880Z,3.00
2022-09-15T14:18:59.933Z,3.38
2022-09-15T14:21:29.678Z,2.90
2022-09-15T14:24:10.404Z,3.75
2022-09-15T14:26:37.095Z,3.13
2022-09-15T14:29:06.300Z,2.15
2022-09-15T14:31:39.041Z,3.10
2022-09-15T14:34:09.643Z,2.58
2022-09-15T14:36:38.245Z,2.88
2022-09-15T14:39:17.826Z,2.25
2022-09-15T14:41:44.641Z,2.35
2022-09-15T14:47:22.125Z,2.75
2022-09-15T14:49:51.598Z,2.33
2022-09-15T14:52:28.296Z,2.25
2022-09-15T14:55:00.429Z,2.30
2022-09-15T14:57:31.772Z,2.58
2022-09-15T15:00:06.131Z,2.22
2022-09-15T15:02:49.672Z,2.13
2022-09-15T15:05:23.078Z,2.50
2022-09-15T15:07:52.536Z,3.03
2022-09-15T15:10:25.802Z,2.20
2022-09-15T15:12:59.972Z,2.38
2022-09-15T15:15:27.242Z,2.58
2022-09-15T15:17:54.680Z,2.40
2022-09-15T15:20:27.525Z,2.28
2022-09-15T15:23:26.577Z,2.45
2022-09-15T15:26:33.121Z,2.63
2022-09-15T15:28:59.827Z,3.00
2022-09-15T15:31:28.523Z,2.20
2022-09-15T15:34:24.361Z,2.25
2022-09-15T15:36:50.777Z,2.20
2022-09-15T15:39:27.027Z,2.17
2022-09-15T15:42:05.552Z,2.05
2022-09-15T15:44:34.331Z,2.05
2022-09-15T15:47:03.053Z,2.28
2022-09-15T15:49:33.136Z,1.90
2022-09-15T15:52:01.689Z,2.13
2022-09-15T15:54:28.649Z,1.88
2022-09-15T15:56:57.705Z,2.45
2022-09-15T15:59:24.119Z,1.65
2022-09-15T16:01:52.995Z,1.73
2022-09-15T16:04:19.545Z,1.95
2022-09-15T16:06:46.271Z,1.55
2022-09-15T16:09:17.177Z,2.03
2022-09-15T16:11:43.572Z,2.17
2022-09-15T16:14:13.911Z,2.13
2022-09-15T16:16:42.796Z,2.17
2022-09-15T16:19:09.642Z,1.58
2022-09-15T16:21:41.679Z,2.00
2022-09-15T16:24:15.174Z,1.95
2022-09-15T16:26:43.072Z,1.88
2022-09-15T16:29:09.567Z,1.58
2022-09-15T16:31:36.390Z,1.45
2022-09-15T16:34:02.815Z,1.55
2022-09-15T16:36:33.162Z,1.83
2022-09-15T16:39:01.837Z,1.50
2022-09-15T16:41:28.241Z,1.80
2022-09-15T16:43:55.966Z,1.60
2022-09-15T16:46:22.425Z,1.70
2022-09-15T16:48:48.897Z,1.80
2022-09-15T16:51:27.359Z,1.40
2022-09-15T16:53:56.187Z,1.60
2022-09-15T16:56:22.697Z,1.40
2022-09-15T16:58:49.391Z,1.55
2022-09-15T17:01:20.613Z,1.35
2022-09-15T17:03:47.995Z,1.95
2022-09-15T17:06:16.307Z,1.80
2022-09-15T17:08:46.097Z,1.60
2022-09-15T17:11:19.690Z,1.77
2022-09-15T17:13:49.672Z,1.67
2022-09-15T17:16:21.970Z,2.10
2022-09-15T17:18:49.003Z,2.20
2022-09-15T17:21:17.025Z,1.50
2022-09-15T17:23:49.197Z,1.65
2022-09-15T17:26:20.045Z,2.20
2022-09-15T17:28:46.679Z,1.70
2022-09-15T17:31:19.601Z,1.58
2022-09-15T17:33:46.348Z,1.88
2022-09-15T17:36:13.368Z,1.75
2022-09-15T17:38:41.010Z,1.58
2022-09-15T17:41:14.148Z,1.88
2022-09-15T17:43:44.708Z,1.65
2022-09-15T17:46:11.733Z,2.10
2022-09-15T17:48:39.234Z,1.80
2022-09-15T17:51:14.217Z,1.98
2022-09-15T17:53:40.660Z,2.03
2022-09-15T17:56:07.044Z,2.53
2022-09-15T17:58:33.485Z,1.75
2022-09-15T18:01:05.854Z,2.35
2022-09-15T18:03:34.924Z,2.08
2022-09-15T18:06:07.981Z,8.43
2022-09-15T18:08:35.778Z,11.38
2022-09-15T18:11:03.200Z,12.30
2022-09-15T18:13:30.126Z,8.68
2022-09-15T18:15:57.787Z,6.80
2022-09-15T18:18:27.962Z,5.45
2022-09-15T18:20:56.685Z,4.32
2022-09-15T18:23:24.904Z,3.80
2022-09-15T18:25:51.621Z,3.70
2022-09-15T18:28:18.499Z,3.75
2022-09-15T18:30:47.723Z,3.38
2022-09-15T18:33:22.881Z,3.40
2022-09-15T18:35:52.943Z,3.00
2022-09-15T18:38:20.215Z,6.60
2022-09-15T18:40:53.508Z,6.32
2022-09-15T18:43:20.224Z,4.13
2022-09-15T18:45:49.350Z,4.80
2022-09-15T18:48:16.057Z,3.45
2022-09-15T18:50:45.780Z,2.97
2022-09-15T18:53:14.782Z,3.22
2022-09-15T18:55:42.057Z,2.65
2022-09-15T18:58:11.643Z,3.05
2022-09-15T19:00:40.594Z,4.13
2022-09-15T19:03:09.409Z,2.70
2022-09-15T19:05:40.953Z,3.60
2022-09-15T19:08:09.068Z,3.78
2022-09-15T19:10:35.911Z,3.30
2022-09-15T19:13:02.280Z,3.38
2022-09-15T19:15:31.283Z,3.22
2022-09-15T19:17:57.755Z,3.38
2022-09-15T19:20:26.618Z,3.78
2022-09-15T19:22:53.041Z,3.70
2022-09-15T19:25:19.519Z,2.92
2022-09-15T19:27:49.284Z,3.28
2022-09-15T19:30:15.635Z,3.78
2022-09-15T19:32:42.943Z,2.72
2022-09-15T19:35:14.079Z,3.60
2022-09-15T19:37:42.010Z,3.10
2022-09-15T19:40:11.979Z,2.88
2022-09-15T19:42:39.730Z,3.25
2022-09-15T19:45:07.569Z,2.63
2022-09-15T19:47:36.932Z,3.08
2022-09-15T19:50:05.785Z,2.40
2022-09-15T19:52:34.976Z,2.83
2022-09-15T19:55:04.835Z,3.70
2022-09-15T19:57:33.608Z,3.83
2022-09-15T19:59:59.985Z,3.30
2022-09-15T20:02:26.624Z,3.50
2022-09-15T20:04:53.787Z,4.95
2022-09-15T20:07:20.125Z,3.25
2022-09-15T20:09:54.422Z,5.00
2022-09-15T20:14:55.131Z,3.95
2022-09-15T20:17:21.573Z,3.80
2022-09-15T20:19:48.420Z,4.57
2022-09-15T20:22:14.850Z,4.50
2022-09-15T20:24:41.284Z,4.40
2022-09-15T20:27:08.793Z,3.22
2022-09-15T20:29:35.407Z,3.55
2022-09-15T20:32:04.337Z,4.35
2022-09-15T20:34:30.733Z,3.20
2022-09-15T20:36:57.866Z,3.92
2022-09-15T20:39:27.292Z,3.58
2022-09-15T20:41:54.317Z,3.38
2022-09-15T20:44:20.674Z,3.28
2022-09-15T20:46:49.503Z,3.65
2022-09-15T20:49:15.956Z,3.95
2022-09-15T20:51:45.298Z,4.13
2022-09-15T20:54:11.672Z,3.45
2022-09-15T20:56:38.182Z,3.65
2022-09-15T20:59:05.949Z,3.72
2022-09-15T21:01:36.255Z,3.25
2022-09-15T21:04:03.189Z,2.90
2022-09-15T21:06:31.542Z,2.90
2022-09-15T21:09:00.304Z,2.92
2022-09-15T21:11:27.453Z,3.10
2022-09-15T21:13:57.721Z,2.97
2022-09-15T21:16:27.906Z,3.05
2022-09-15T21:18:55.967Z,2.78
2022-09-15T21:21:29.685Z,3.17
2022-09-15T21:24:03.533Z,2.00
2022-09-15T21:26:32.950Z,3.08
2022-09-15T21:28:59.689Z,2.67
2022-09-15T21:31:33.135Z,2.70
2022-09-15T21:33:59.869Z,2.60
2022-09-15T21:36:29.463Z,2.90
2022-09-15T21:38:57.418Z,2.45
2022-09-15T21:41:26.373Z,2.78
2022-09-15T21:43:55.802Z,2.38
2022-09-15T21:46:25.076Z,2.20
2022-09-15T21:48:51.837Z,2.05
2022-09-15T21:51:24.237Z,2.28
2022-09-15T21:53:53.472Z,1.95
2022-09-15T21:56:20.863Z,2.80
2022-09-15T21:58:49.941Z,2.55
2022-09-15T22:01:22.159Z,2.50
2022-09-15T22:04:02.583Z,2.67
2022-09-15T22:06:32.368Z,2.65
2022-09-15T22:09:00.101Z,2.50
2022-09-15T22:11:29.161Z,2.65
2022-09-15T22:13:55.751Z,2.05
2022-09-15T22:16:24.630Z,2.10
2022-09-15T22:18:57.055Z,1.63
2022-09-15T22:21:26.476Z,1.75
2022-09-15T22:23:57.748Z,1.60
2022-09-15T22:26:29.165Z,1.65
2022-09-15T22:28:56.416Z,1.40
2022-09-15T22:31:23.986Z,2.10
2022-09-15T22:33:51.480Z,1.50
2022-09-15T22:36:30.337Z,1.45
2022-09-15T22:39:05.828Z,1.90
2022-09-15T22:41:39.165Z,2.10
2022-09-15T22:44:16.612Z,1.92
2022-09-15T22:46:43.037Z,1.77
2022-09-15T22:49:09.402Z,2.63
2022-09-15T22:51:35.886Z,1.45
2022-09-15T22:54:05.941Z,1.35
2022-09-15T22:56:32.419Z,1.65
2022-09-15T22:58:58.905Z,1.00
2022-09-15T23:01:27.943Z,1.40
2022-09-15T23:04:04.017Z,1.90
2022-09-15T23:06:37.326Z,1.20
2022-09-15T23:09:09.610Z,1.45
2022-09-15T23:11:39.635Z,1.33
2022-09-15T23:14:17.203Z,1.30
2022-09-15T23:16:44.291Z,1.38
2022-09-15T23:19:13.997Z,1.50
2022-09-15T23:21:40.469Z,1.23
2022-09-15T23:24:08.624Z,1.60
2022-09-15T23:26:35.018Z,1.40
2022-09-15T23:29:01.356Z,1.55
2022-09-15T23:31:30.240Z,1.25
2022-09-15T23:33:59.288Z,1.13
2022-09-15T23:36:25.642Z,1.13
2022-09-15T23:38:52.031Z,1.15
2022-09-15T23:41:23.525Z,0.90
2022-09-15T23:43:50.224Z,0.85
2022-09-15T23:46:16.964Z,0.73
2022-09-15T23:48:46.264Z,1.20
2022-09-15T23:51:12.699Z,1.17
2022-09-15T23:53:39.409Z,1.05
2022-09-15T23:56:08.454Z,1.08
2022-09-15T23:58:34.862Z,1.00
